sensor_id;sensor_type;location;lat;lon;timestamp;temperature;humidity
16728;DHT22;8482;54.396;18.590;2023-03-01T05:07:55;4.10;99.90
16728;DHT22;8482;54.396;18.590;2023-03-01T05:10:24;4.10;99.90
16728;DHT22;8482;54.396;18.590;2023-03-01T05:12:51;4.10;99.90
16728;DHT22;8482;54.396;18.590;2023-03-01T05:15:18;4.10;99.90
16728;DHT22;8482;54.396;18.590;2023-03-01T05:17:47;4.10;99.90
16728;DHT22;8482;54.396;18.590;2023-03-01T05:20:14;4.10;99.90
16728;DHT22;8482;54.396;18.590;2023-03-01T05:22:40;4.00;99.90
16728;DHT22;8482;54.396;18.590;2023-03-01T05:25:06;4.00;99.90
16728;DHT22;8482;54.396;18.590;2023-03-01T05:27:33;4.00;99.90
16728;DHT22;8482;54.396;18.590;2023-03-01T05:29:59;4.00;99.90
16728;DHT22;8482;54.396;18.590;2023-03-01T05:32:39;4.00;99.90
16728;DHT22;8482;54.396;18.590;2023-03-01T05:35:06;4.00;99.90
16728;DHT22;8482;54.396;18.590;2023-03-01T05:37:32;4.00;99.90
16728;DHT22;8482;54.396;18.590;2023-03-01T05:39:58;4.00;99.90
16728;DHT22;8482;54.396;18.590;2023-03-01T05:42:24;4.00;99.90
16728;DHT22;8482;54.396;18.590;2023-03-01T05:44:49;4.00;99.90
16728;DHT22;8482;54.396;18.590;2023-03-01T05:47:15;4.00;99.90
16728;DHT22;8482;54.396;18.590;2023-03-01T05:49:41;4.00;99.90
16728;DHT22;8482;54.396;18.590;2023-03-01T05:52:07;4.00;99.90
16728;DHT22;8482;54.396;18.590;2023-03-01T05:54:33;4.00;99.90
16728;DHT22;8482;54.396;18.590;2023-03-01T05:56:59;4.00;99.90
16728;DHT22;8482;54.396;18.590;2023-03-01T05:59:25;4.00;99.90
16728;DHT22;8482;54.396;18.590;2023-03-01T06:01:51;4.00;99.90
16728;DHT22;8482;54.396;18.590;2023-03-01T06:04:16;4.00;99.90
16728;DHT22;8482;54.396;18.590;2023-03-01T06:06:42;4.00;99.90
16728;DHT22;8482;54.396;18.590;2023-03-01T06:09:08;4.00;99.90
16728;DHT22;8482;54.396;18.590;2023-03-01T06:11:36;4.00;99.90
16728;DHT22;8482;54.396;18.590;2023-03-01T06:14:02;4.10;99.90
16728;DHT22;8482;54.396;18.590;2023-03-01T06:16:29;4.00;99.90
16728;DHT22;8482;54.396;18.590;2023-03-01T06:18:55;4.00;99.90
16728;DHT22;8482;54.396;18.590;2023-03-01T06:21:21;4.00;99.90
16728;DHT22;8482;54.396;18.590;2023-03-01T06:23:46;4.00;99.90
16728;DHT22;8482;54.396;18.590;2023-03-01T06:26:12;4.10;99.90
16728;DHT22;8482;54.396;18.590;2023-03-01T06:28:38;4.00;99.90
16728;DHT22;8482;54.396;18.590;2023-03-01T06:31:04;4.10;99.90
16728;DHT22;8482;54.396;18.590;2023-03-01T06:33:33;4.10;99.90
16728;DHT22;8482;54.396;18.590;2023-03-01T06:35:59;4.10;99.90
16728;DHT22;8482;54.396;18.590;2023-03-01T06:38:25;4.10;99.90
16728;DHT22;8482;54.396;18.590;2023-03-01T06:40:52;4.10;99.90
16728;DHT22;8482;54.396;18.590;2023-03-01T06:43:19;4.10;99.90
16728;DHT22;8482;54.396;18.590;2023-03-01T06:45:46;4.20;99.90
16728;DHT22;8482;54.396;18.590;2023-03-01T06:48:12;4.20;99.90
16728;DHT22;8482;54.396;18.590;2023-03-01T06:50:37;4.20;99.90
16728;DHT22;8482;54.396;18.590;2023-03-01T06:53:03;4.20;99.90
16728;DHT22;8482;54.396;18.590;2023-03-01T06:55:30;4.20;99.90
16728;DHT22;8482;54.396;18.590;2023-03-01T06:58:03;4.20;99.90
16728;DHT22;8482;54.396;18.590;2023-03-01T07:00:29;4.20;99.90
16728;DHT22;8482;54.396;18.590;2023-03-01T07:02:58;4.20;99.90
16728;DHT22;8482;54.396;18.590;2023-03-01T07:05:27;4.20;99.90
16728;DHT22;8482;54.396;18.590;2023-03-01T07:07:53;4.20;99.90
16728;DHT22;8482;54.396;18.590;2023-03-01T07:10:20;4.20;99.90
16728;DHT22;8482;54.396;18.590;2023-03-01T07:12:46;4.20;99.90
16728;DHT22;8482;54.396;18.590;2023-03-01T07:15:12;4.20;99.90
16728;DHT22;8482;54.396;18.590;2023-03-01T07:17:40;4.20;99.90
16728;DHT22;8482;54.396;18.590;2023-03-01T07:20:06;4.30;99.90
16728;DHT22;8482;54.396;18.590;2023-03-01T07:22:32;4.30;99.90
16728;DHT22;8482;54.396;18.590;2023-03-01T07:24:58;4.30;99.90
16728;DHT22;8482;54.396;18.590;2023-03-01T07:27:24;4.40;99.90
16728;DHT22;8482;54.396;18.590;2023-03-01T07:29:50;4.40;99.90
16728;DHT22;8482;54.396;18.590;2023-03-01T07:32:16;4.40;99.90
16728;DHT22;8482;54.396;18.590;2023-03-01T07:34:42;4.40;99.90
16728;DHT22;8482;54.396;18.590;2023-03-01T07:37:08;4.50;99.90
16728;DHT22;8482;54.396;18.590;2023-03-01T07:39:33;4.50;99.90
16728;DHT22;8482;54.396;18.590;2023-03-01T07:41:59;4.60;99.90
16728;DHT22;8482;54.396;18.590;2023-03-01T07:44:25;4.60;99.90
16728;DHT22;8482;54.396;18.590;2023-03-01T07:46:51;4.60;99.90
16728;DHT22;8482;54.396;18.590;2023-03-01T07:49:21;4.70;99.90
16728;DHT22;8482;54.396;18.590;2023-03-01T07:51:47;4.70;99.90
16728;DHT22;8482;54.396;18.590;2023-03-01T07:54:13;4.80;99.90
16728;DHT22;8482;54.396;18.590;2023-03-01T07:56:39;4.80;99.90
16728;DHT22;8482;54.396;18.590;2023-03-01T07:59:06;4.80;99.90
16728;DHT22;8482;54.396;18.590;2023-03-01T08:01:31;4.90;99.90
16728;DHT22;8482;54.396;18.590;2023-03-01T08:03:57;4.90;99.90
16728;DHT22;8482;54.396;18.590;2023-03-01T08:06:23;5.00;99.90
16728;DHT22;8482;54.396;18.590;2023-03-01T08:08:49;5.00;99.90
16728;DHT22;8482;54.396;18.590;2023-03-01T08:11:15;5.00;99.90
16728;DHT22;8482;54.396;18.590;2023-03-01T08:13:42;5.10;99.90
16728;DHT22;8482;54.396;18.590;2023-03-01T08:16:13;5.10;99.90
16728;DHT22;8482;54.396;18.590;2023-03-01T08:18:41;5.10;99.90
16728;DHT22;8482;54.396;18.590;2023-03-01T08:21:10;5.20;99.90
16728;DHT22;8482;54.396;18.590;2023-03-01T08:23:37;5.20;99.90
16728;DHT22;8482;54.396;18.590;2023-03-01T08:28:31;5.30;99.90
16728;DHT22;8482;54.396;18.590;2023-03-01T08:30:57;5.40;99.90
16728;DHT22;8482;54.396;18.590;2023-03-01T08:33:23;5.40;99.90
16728;DHT22;8482;54.396;18.590;2023-03-01T08:35:49;5.50;99.90
16728;DHT22;8482;54.396;18.590;2023-03-01T08:38:15;5.50;99.90
16728;DHT22;8482;54.396;18.590;2023-03-01T08:40:40;5.50;99.90
16728;DHT22;8482;54.396;18.590;2023-03-01T08:43:06;5.60;99.90
16728;DHT22;8482;54.396;18.590;2023-03-01T08:45:32;5.60;99.90
16728;DHT22;8482;54.396;18.590;2023-03-01T08:47:58;5.70;99.90
16728;DHT22;8482;54.396;18.590;2023-03-01T08:50:24;5.70;99.90
16728;DHT22;8482;54.396;18.590;2023-03-01T08:52:50;5.80;99.90
16728;DHT22;8482;54.396;18.590;2023-03-01T08:55:16;5.80;99.90
16728;DHT22;8482;54.396;18.590;2023-03-01T08:57:43;5.90;99.90
16728;DHT22;8482;54.396;18.590;2023-03-01T09:00:10;5.90;99.90
16728;DHT22;8482;54.396;18.590;2023-03-01T09:02:37;6.00;99.90
16728;DHT22;8482;54.396;18.590;2023-03-01T09:05:04;6.00;99.90
16728;DHT22;8482;54.396;18.590;2023-03-01T09:07:30;6.10;99.90
16728;DHT22;8482;54.396;18.590;2023-03-01T09:09:55;6.10;99.90
16728;DHT22;8482;54.396;18.590;2023-03-01T09:12:21;6.10;99.90
16728;DHT22;8482;54.396;18.590;2023-03-01T09:14:47;6.20;99.90
16728;DHT22;8482;54.396;18.590;2023-03-01T09:17:13;6.30;99.90
16728;DHT22;8482;54.396;18.590;2023-03-01T09:19:39;6.40;99.90
16728;DHT22;8482;54.396;18.590;2023-03-01T09:22:05;6.40;99.90
16728;DHT22;8482;54.396;18.590;2023-03-01T09:24:31;6.50;99.90
16728;DHT22;8482;54.396;18.590;2023-03-01T09:26:57;6.50;99.90
16728;DHT22;8482;54.396;18.590;2023-03-01T09:29:23;6.60;99.90
16728;DHT22;8482;54.396;18.590;2023-03-01T09:31:49;6.70;99.90
16728;DHT22;8482;54.396;18.590;2023-03-01T09:34:15;6.70;99.90
16728;DHT22;8482;54.396;18.590;2023-03-01T09:36:44;6.80;99.90
16728;DHT22;8482;54.396;18.590;2023-03-01T09:39:10;6.80;99.90
16728;DHT22;8482;54.396;18.590;2023-03-01T09:41:46;6.90;99.90
16728;DHT22;8482;54.396;18.590;2023-03-01T09:44:40;6.90;99.90
16728;DHT22;8482;54.396;18.590;2023-03-01T09:47:21;6.90;99.90
16728;DHT22;8482;54.396;18.590;2023-03-01T09:53:05;7.00;99.90
16728;DHT22;8482;54.396;18.590;2023-03-01T09:55:46;7.10;99.90
16728;DHT22;8482;54.396;18.590;2023-03-01T10:01:21;7.20;99.90
16728;DHT22;8482;54.396;18.590;2023-03-01T10:06:35;7.30;99.90
16728;DHT22;8482;54.396;18.590;2023-03-01T10:09:10;7.40;99.90
16728;DHT22;8482;54.396;18.590;2023-03-01T10:11:55;7.50;99.90
16728;DHT22;8482;54.396;18.590;2023-03-01T10:14:48;7.60;99.90
16728;DHT22;8482;54.396;18.590;2023-03-01T10:19:51;7.70;99.90
16728;DHT22;8482;54.396;18.590;2023-03-01T10:22:28;7.80;99.90
16728;DHT22;8482;54.396;18.590;2023-03-01T10:24:59;7.80;99.90
16728;DHT22;8482;54.396;18.590;2023-03-01T10:27:49;7.90;99.90
16728;DHT22;8482;54.396;18.590;2023-03-01T10:30:38;7.90;99.90
16728;DHT22;8482;54.396;18.590;2023-03-01T10:33:17;7.90;99.90
16728;DHT22;8482;54.396;18.590;2023-03-01T10:35:53;7.90;99.90
16728;DHT22;8482;54.396;18.590;2023-03-01T10:38:19;8.00;99.90
16728;DHT22;8482;54.396;18.590;2023-03-01T10:40:59;8.00;99.90
16728;DHT22;8482;54.396;18.590;2023-03-01T10:43:44;8.10;99.90
16728;DHT22;8482;54.396;18.590;2023-03-01T10:46:34;8.10;99.90
16728;DHT22;8482;54.396;18.590;2023-03-01T10:49:20;8.20;99.90
16728;DHT22;8482;54.396;18.590;2023-03-01T10:51:52;8.20;99.90
16728;DHT22;8482;54.396;18.590;2023-03-01T10:54:23;8.30;99.90
16728;DHT22;8482;54.396;18.590;2023-03-01T10:57:35;8.40;99.90
16728;DHT22;8482;54.396;18.590;2023-03-01T11:02:51;8.50;99.90
16728;DHT22;8482;54.396;18.590;2023-03-01T11:05:28;8.50;99.90
16728;DHT22;8482;54.396;18.590;2023-03-01T11:07:58;8.60;99.90
16728;DHT22;8482;54.396;18.590;2023-03-01T11:10:33;8.60;99.90
16728;DHT22;8482;54.396;18.590;2023-03-01T11:13:14;8.60;99.90
16728;DHT22;8482;54.396;18.590;2023-03-01T11:15:42;8.60;99.90
16728;DHT22;8482;54.396;18.590;2023-03-01T11:18:23;8.60;99.90
16728;DHT22;8482;54.396;18.590;2023-03-01T11:20:53;8.60;99.90
16728;DHT22;8482;54.396;18.590;2023-03-01T11:23:21;8.70;99.90
16728;DHT22;8482;54.396;18.590;2023-03-01T11:25:54;8.60;99.90
16728;DHT22;8482;54.396;18.590;2023-03-01T11:28:26;8.70;99.90
16728;DHT22;8482;54.396;18.590;2023-03-01T11:33:42;8.70;99.90
16728;DHT22;8482;54.396;18.590;2023-03-01T11:36:48;8.70;99.90
16728;DHT22;8482;54.396;18.590;2023-03-01T11:48:37;8.90;99.90
16728;DHT22;8482;54.396;18.590;2023-03-01T11:51:16;9.00;99.90
16728;DHT22;8482;54.396;18.590;2023-03-01T11:54:20;9.00;99.90
16728;DHT22;8482;54.396;18.590;2023-03-01T12:26:33;10.00;99.90
16728;DHT22;8482;54.396;18.590;2023-03-01T12:29:25;10.10;99.90
16728;DHT22;8482;54.396;18.590;2023-03-01T12:43:58;10.50;99.90
16728;DHT22;8482;54.396;18.590;2023-03-01T12:47:56;10.70;99.90
16728;DHT22;8482;54.396;18.590;2023-03-01T12:50:23;10.80;99.90
16728;DHT22;8482;54.396;18.590;2023-03-01T12:52:56;10.90;99.90
16728;DHT22;8482;54.396;18.590;2023-03-01T12:55:29;11.10;99.90
16728;DHT22;8482;54.396;18.590;2023-03-01T12:58:32;11.10;99.90
16728;DHT22;8482;54.396;18.590;2023-03-01T13:01:22;11.20;99.90
16728;DHT22;8482;54.396;18.590;2023-03-01T13:07:41;11.40;99.70
16728;DHT22;8482;54.396;18.590;2023-03-01T13:13:23;11.70;99.00
16728;DHT22;8482;54.396;18.590;2023-03-01T13:15:52;11.80;98.50
16728;DHT22;8482;54.396;18.590;2023-03-01T13:20:49;12.10;98.10
16728;DHT22;8482;54.396;18.590;2023-03-01T13:23:30;12.20;98.10
16728;DHT22;8482;54.396;18.590;2023-03-01T13:34:00;12.90;96.10
16728;DHT22;8482;54.396;18.590;2023-03-01T13:41:55;13.80;94.30
16728;DHT22;8482;54.396;18.590;2023-03-01T13:50:00;15.50;90.40
16728;DHT22;8482;54.396;18.590;2023-03-01T13:52:38;16.20;87.80
16728;DHT22;8482;54.396;18.590;2023-03-01T13:57:45;17.30;81.20
16728;DHT22;8482;54.396;18.590;2023-03-01T14:00:35;17.60;79.50
16728;DHT22;8482;54.396;18.590;2023-03-01T14:05:37;18.30;74.90
16728;DHT22;8482;54.396;18.590;2023-03-01T14:08:05;18.60;74.00
16728;DHT22;8482;54.396;18.590;2023-03-01T14:16:27;19.20;70.30
16728;DHT22;8482;54.396;18.590;2023-03-01T14:19:19;19.40;68.80
16728;DHT22;8482;54.396;18.590;2023-03-01T14:24:53;20.10;66.80
16728;DHT22;8482;54.396;18.590;2023-03-01T14:27:21;20.20;65.60
16728;DHT22;8482;54.396;18.590;2023-03-01T14:29:59;20.40;64.80
16728;DHT22;8482;54.396;18.590;2023-03-01T14:32:30;20.50;64.80
16728;DHT22;8482;54.396;18.590;2023-03-01T14:34:58;20.60;64.00
16728;DHT22;8482;54.396;18.590;2023-03-01T14:37:26;20.80;63.60
16728;DHT22;8482;54.396;18.590;2023-03-01T14:39:58;20.80;62.20
16728;DHT22;8482;54.396;18.590;2023-03-01T14:42:31;20.70;62.30
16728;DHT22;8482;54.396;18.590;2023-03-01T14:45:03;20.70;62.20
16728;DHT22;8482;54.396;18.590;2023-03-01T14:47:34;20.60;62.00
16728;DHT22;8482;54.396;18.590;2023-03-01T14:50:21;20.60;61.90
16728;DHT22;8482;54.396;18.590;2023-03-01T14:52:49;20.80;61.50
16728;DHT22;8482;54.396;18.590;2023-03-01T14:55:32;20.80;61.50
16728;DHT22;8482;54.396;18.590;2023-03-01T14:58:09;20.80;61.20
16728;DHT22;8482;54.396;18.590;2023-03-01T15:00:51;20.60;60.50
16728;DHT22;8482;54.396;18.590;2023-03-01T15:03:42;20.30;61.20
16728;DHT22;8482;54.396;18.590;2023-03-01T15:06:15;20.20;61.60
16728;DHT22;8482;54.396;18.590;2023-03-01T15:08:47;19.80;61.60
16728;DHT22;8482;54.396;18.590;2023-03-01T15:13:53;18.50;63.40
16728;DHT22;8482;54.396;18.590;2023-03-01T15:19:01;16.70;67.40
16728;DHT22;8482;54.396;18.590;2023-03-01T15:21:37;15.80;70.20
16728;DHT22;8482;54.396;18.590;2023-03-01T15:26:57;14.30;73.70
16728;DHT22;8482;54.396;18.590;2023-03-01T15:29:29;13.70;75.70
16728;DHT22;8482;54.396;18.590;2023-03-01T15:32:05;13.20;77.20
16728;DHT22;8482;54.396;18.590;2023-03-01T15:34:48;12.70;78.60
16728;DHT22;8482;54.396;18.590;2023-03-01T15:40:29;11.90;82.30
16728;DHT22;8482;54.396;18.590;2023-03-01T15:43:00;11.50;84.00
16728;DHT22;8482;54.396;18.590;2023-03-01T15:45:28;11.20;85.20
16728;DHT22;8482;54.396;18.590;2023-03-01T15:47:57;11.00;86.60
16728;DHT22;8482;54.396;18.590;2023-03-01T15:50:31;10.80;88.00
16728;DHT22;8482;54.396;18.590;2023-03-01T15:53:00;10.60;89.50
16728;DHT22;8482;54.396;18.590;2023-03-01T15:55:31;10.50;90.50
16728;DHT22;8482;54.396;18.590;2023-03-01T15:58:02;10.30;91.50
16728;DHT22;8482;54.396;18.590;2023-03-01T16:00:32;10.20;92.70
16728;DHT22;8482;54.396;18.590;2023-03-01T16:02:58;10.10;94.00
16728;DHT22;8482;54.396;18.590;2023-03-01T16:07:53;9.90;96.60
16728;DHT22;8482;54.396;18.590;2023-03-01T16:10:19;9.70;97.60
16728;DHT22;8482;54.396;18.590;2023-03-01T16:12:46;9.70;98.60
16728;DHT22;8482;54.396;18.590;2023-03-01T16:15:21;9.50;99.40
16728;DHT22;8482;54.396;18.590;2023-03-01T16:17:53;9.50;99.90
16728;DHT22;8482;54.396;18.590;2023-03-01T16:20:24;9.30;99.90
16728;DHT22;8482;54.396;18.590;2023-03-01T16:22:51;9.30;99.90
16728;DHT22;8482;54.396;18.590;2023-03-01T16:25:19;9.20;99.90
16728;DHT22;8482;54.396;18.590;2023-03-01T16:27:47;9.10;99.90
16728;DHT22;8482;54.396;18.590;2023-03-01T16:30:19;9.00;99.90
16728;DHT22;8482;54.396;18.590;2023-03-01T16:32:48;8.90;99.90
16728;DHT22;8482;54.396;18.590;2023-03-01T16:35:17;8.90;99.90
16728;DHT22;8482;54.396;18.590;2023-03-01T16:37:44;8.80;99.90
16728;DHT22;8482;54.396;18.590;2023-03-01T16:42:48;8.70;99.90
16728;DHT22;8482;54.396;18.590;2023-03-01T16:45:15;8.60;99.90
16728;DHT22;8482;54.396;18.590;2023-03-01T16:47:41;8.60;99.90
16728;DHT22;8482;54.396;18.590;2023-03-01T16:50:08;8.60;99.90
16728;DHT22;8482;54.396;18.590;2023-03-01T16:52:34;8.50;99.90
16728;DHT22;8482;54.396;18.590;2023-03-01T16:55:02;8.50;99.90
16728;DHT22;8482;54.396;18.590;2023-03-01T16:57:29;8.40;99.90
16728;DHT22;8482;54.396;18.590;2023-03-01T16:59:55;8.40;99.90
16728;DHT22;8482;54.396;18.590;2023-03-01T17:02:22;8.30;99.90
16728;DHT22;8482;54.396;18.590;2023-03-01T17:04:54;8.30;99.90
16728;DHT22;8482;54.396;18.590;2023-03-01T17:07:21;8.30;99.90
16728;DHT22;8482;54.396;18.590;2023-03-01T17:09:47;8.20;99.90
16728;DHT22;8482;54.396;18.590;2023-03-01T17:12:14;8.20;99.90
16728;DHT22;8482;54.396;18.590;2023-03-01T17:14:41;8.20;99.90
16728;DHT22;8482;54.396;18.590;2023-03-01T17:17:08;8.20;99.90
16728;DHT22;8482;54.396;18.590;2023-03-01T17:19:36;8.20;99.90
16728;DHT22;8482;54.396;18.590;2023-03-01T17:22:07;8.10;99.90
16728;DHT22;8482;54.396;18.590;2023-03-01T17:24:34;8.10;99.90
16728;DHT22;8482;54.396;18.590;2023-03-01T17:27:02;8.10;99.90
16728;DHT22;8482;54.396;18.590;2023-03-01T17:29:28;8.10;99.90
16728;DHT22;8482;54.396;18.590;2023-03-01T17:31:54;8.00;99.90
16728;DHT22;8482;54.396;18.590;2023-03-01T17:34:21;8.00;99.90
16728;DHT22;8482;54.396;18.590;2023-03-01T17:36:48;8.00;99.90
16728;DHT22;8482;54.396;18.590;2023-03-01T17:39:17;7.90;99.90
16728;DHT22;8482;54.396;18.590;2023-03-01T17:41:51;7.90;99.90
16728;DHT22;8482;54.396;18.590;2023-03-01T17:44:17;7.90;99.90
16728;DHT22;8482;54.396;18.590;2023-03-01T17:46:43;7.80;99.90
16728;DHT22;8482;54.396;18.590;2023-03-01T17:49:09;7.80;99.90
16728;DHT22;8482;54.396;18.590;2023-03-01T17:51:35;7.70;99.90
16728;DHT22;8482;54.396;18.590;2023-03-01T17:54:01;7.70;99.90
16728;DHT22;8482;54.396;18.590;2023-03-01T17:56:27;7.70;99.90
16728;DHT22;8482;54.396;18.590;2023-03-01T17:58:53;7.60;99.90
16728;DHT22;8482;54.396;18.590;2023-03-01T18:01:21;7.60;99.90
16728;DHT22;8482;54.396;18.590;2023-03-01T18:03:50;7.60;99.90
16728;DHT22;8482;54.396;18.590;2023-03-01T18:06:23;7.50;99.90
16728;DHT22;8482;54.396;18.590;2023-03-01T18:08:51;7.50;99.90
16728;DHT22;8482;54.396;18.590;2023-03-01T18:11:21;7.40;99.90
16728;DHT22;8482;54.396;18.590;2023-03-01T18:13:49;7.40;99.90
16728;DHT22;8482;54.396;18.590;2023-03-01T18:16:17;7.30;99.90
16728;DHT22;8482;54.396;18.590;2023-03-01T18:18:45;7.30;99.90
16728;DHT22;8482;54.396;18.590;2023-03-01T18:21:12;7.30;99.90
16728;DHT22;8482;54.396;18.590;2023-03-01T18:23:39;7.20;99.90
16728;DHT22;8482;54.396;18.590;2023-03-01T18:26:08;7.20;99.90
16728;DHT22;8482;54.396;18.590;2023-03-01T18:28:37;7.20;99.90
16728;DHT22;8482;54.396;18.590;2023-03-01T18:31:07;7.20;99.90
16728;DHT22;8482;54.396;18.590;2023-03-01T18:33:36;7.20;99.90
16728;DHT22;8482;54.396;18.590;2023-03-01T18:36:03;7.20;99.90
16728;DHT22;8482;54.396;18.590;2023-03-01T18:38:31;7.10;99.90
16728;DHT22;8482;54.396;18.590;2023-03-01T18:40:57;7.10;99.90
16728;DHT22;8482;54.396;18.590;2023-03-01T18:43:24;7.10;99.90
16728;DHT22;8482;54.396;18.590;2023-03-01T18:45:57;7.10;99.90
16728;DHT22;8482;54.396;18.590;2023-03-01T18:48:23;7.00;99.90
16728;DHT22;8482;54.396;18.590;2023-03-01T18:50:49;7.00;99.90
16728;DHT22;8482;54.396;18.590;2023-03-01T18:53:15;7.00;99.90
16728;DHT22;8482;54.396;18.590;2023-03-01T18:55:41;7.00;99.90
16728;DHT22;8482;54.396;18.590;2023-03-01T18:58:07;6.90;99.90
16728;DHT22;8482;54.396;18.590;2023-03-01T19:00:33;6.90;99.90
16728;DHT22;8482;54.396;18.590;2023-03-01T19:02:59;6.90;99.90
16728;DHT22;8482;54.396;18.590;2023-03-01T19:05:27;6.90;99.90
16728;DHT22;8482;54.396;18.590;2023-03-01T19:07:53;6.80;99.90
16728;DHT22;8482;54.396;18.590;2023-03-01T19:10:19;6.80;99.90
16728;DHT22;8482;54.396;18.590;2023-03-01T19:12:45;6.80;99.90
16728;DHT22;8482;54.396;18.590;2023-03-01T19:15:12;6.70;99.90
16728;DHT22;8482;54.396;18.590;2023-03-01T19:17:43;6.70;99.90
16728;DHT22;8482;54.396;18.590;2023-03-01T19:20:10;6.70;99.90
16728;DHT22;8482;54.396;18.590;2023-03-01T19:22:37;6.60;99.90
16728;DHT22;8482;54.396;18.590;2023-03-01T19:25:03;6.60;99.90
16728;DHT22;8482;54.396;18.590;2023-03-01T19:27:30;6.60;99.90
16728;DHT22;8482;54.396;18.590;2023-03-01T19:29:55;6.50;99.90
16728;DHT22;8482;54.396;18.590;2023-03-01T19:32:21;6.50;99.90
16728;DHT22;8482;54.396;18.590;2023-03-01T19:34:47;6.50;99.90
16728;DHT22;8482;54.396;18.590;2023-03-01T19:37:13;6.40;99.90
16728;DHT22;8482;54.396;18.590;2023-03-01T19:39:40;6.40;99.90
16728;DHT22;8482;54.396;18.590;2023-03-01T19:42:08;6.40;99.90
16728;DHT22;8482;54.396;18.590;2023-03-01T19:44:34;6.40;99.90
16728;DHT22;8482;54.396;18.590;2023-03-01T19:47:00;6.40;99.90
16728;DHT22;8482;54.396;18.590;2023-03-01T19:49:26;6.40;99.90
16728;DHT22;8482;54.396;18.590;2023-03-01T19:51:54;6.40;99.90
16728;DHT22;8482;54.396;18.590;2023-03-01T19:54:20;6.40;99.90
16728;DHT22;8482;54.396;18.590;2023-03-01T19:56:48;6.40;99.90
16728;DHT22;8482;54.396;18.590;2023-03-01T19:59:15;6.40;99.90
16728;DHT22;8482;54.396;18.590;2023-03-01T20:01:44;6.30;99.90
16728;DHT22;8482;54.396;18.590;2023-03-01T20:04:10;6.30;99.90
16728;DHT22;8482;54.396;18.590;2023-03-01T20:06:37;6.30;99.90
16728;DHT22;8482;54.396;18.590;2023-03-01T20:09:06;6.30;99.90
16728;DHT22;8482;54.396;18.590;2023-03-01T20:11:33;6.30;99.90
16728;DHT22;8482;54.396;18.590;2023-03-01T20:13:59;6.30;99.90
16728;DHT22;8482;54.396;18.590;2023-03-01T20:16:25;6.30;99.90
16728;DHT22;8482;54.396;18.590;2023-03-01T20:18:52;6.30;99.90
16728;DHT22;8482;54.396;18.590;2023-03-01T20:21:19;6.20;99.90
16728;DHT22;8482;54.396;18.590;2023-03-01T20:23:46;6.20;99.90
16728;DHT22;8482;54.396;18.590;2023-03-01T20:26:12;6.20;99.90
16728;DHT22;8482;54.396;18.590;2023-03-01T20:28:41;6.20;99.90
16728;DHT22;8482;54.396;18.590;2023-03-01T20:31:12;6.20;99.90
16728;DHT22;8482;54.396;18.590;2023-03-01T20:33:39;6.10;99.90
16728;DHT22;8482;54.396;18.590;2023-03-01T20:36:07;6.10;99.90
16728;DHT22;8482;54.396;18.590;2023-03-01T20:38:34;6.10;99.90
16728;DHT22;8482;54.396;18.590;2023-03-01T20:41:06;6.10;99.90
16728;DHT22;8482;54.396;18.590;2023-03-01T20:43:34;6.10;99.90
16728;DHT22;8482;54.396;18.590;2023-03-01T20:46:09;6.00;99.90
16728;DHT22;8482;54.396;18.590;2023-03-01T20:48:38;6.00;99.90
16728;DHT22;8482;54.396;18.590;2023-03-01T20:51:09;6.00;99.90
16728;DHT22;8482;54.396;18.590;2023-03-01T20:53:36;6.00;99.90
16728;DHT22;8482;54.396;18.590;2023-03-01T20:56:10;6.00;99.90
16728;DHT22;8482;54.396;18.590;2023-03-01T20:58:38;6.00;99.90
16728;DHT22;8482;54.396;18.590;2023-03-01T21:01:06;6.00;99.90
16728;DHT22;8482;54.396;18.590;2023-03-01T21:03:33;5.90;99.90
16728;DHT22;8482;54.396;18.590;2023-03-01T21:06:01;5.90;99.90
16728;DHT22;8482;54.396;18.590;2023-03-01T21:08:30;5.90;99.90
16728;DHT22;8482;54.396;18.590;2023-03-01T21:10:57;5.80;99.90
16728;DHT22;8482;54.396;18.590;2023-03-01T21:13:24;5.80;99.90
16728;DHT22;8482;54.396;18.590;2023-03-01T21:15:52;5.70;99.90
16728;DHT22;8482;54.396;18.590;2023-03-01T21:18:27;5.70;99.90
16728;DHT22;8482;54.396;18.590;2023-03-01T21:20:59;5.60;99.90
16728;DHT22;8482;54.396;18.590;2023-03-01T21:23:31;5.60;99.90
16728;DHT22;8482;54.396;18.590;2023-03-01T21:26:10;5.60;99.90
16728;DHT22;8482;54.396;18.590;2023-03-01T21:28:47;5.60;99.90
16728;DHT22;8482;54.396;18.590;2023-03-01T21:31:17;5.50;99.90
16728;DHT22;8482;54.396;18.590;2023-03-01T21:33:49;5.50;99.90
16728;DHT22;8482;54.396;18.590;2023-03-01T21:36:17;5.50;99.90
16728;DHT22;8482;54.396;18.590;2023-03-01T21:38:46;5.50;99.90
16728;DHT22;8482;54.396;18.590;2023-03-01T21:41:15;5.40;99.90
16728;DHT22;8482;54.396;18.590;2023-03-01T21:43:47;5.40;99.90
16728;DHT22;8482;54.396;18.590;2023-03-01T21:46:17;5.40;99.90
16728;DHT22;8482;54.396;18.590;2023-03-01T21:48:46;5.40;99.90
16728;DHT22;8482;54.396;18.590;2023-03-01T21:51:15;5.40;99.90
16728;DHT22;8482;54.396;18.590;2023-03-01T21:53:46;5.30;99.90
16728;DHT22;8482;54.396;18.590;2023-03-01T21:56:27;5.30;99.90
16728;DHT22;8482;54.396;18.590;2023-03-01T21:58:57;5.30;99.90
16728;DHT22;8482;54.396;18.590;2023-03-01T22:01:24;5.20;99.90
16728;DHT22;8482;54.396;18.590;2023-03-01T22:03:52;5.20;99.90
16728;DHT22;8482;54.396;18.590;2023-03-01T22:06:25;5.10;99.90
16728;DHT22;8482;54.396;18.590;2023-03-01T22:09:04;5.10;99.90
16728;DHT22;8482;54.396;18.590;2023-03-01T22:11:46;5.10;99.90
16728;DHT22;8482;54.396;18.590;2023-03-01T22:14:17;5.00;99.90
16728;DHT22;8482;54.396;18.590;2023-03-01T22:16:43;5.00;99.90
16728;DHT22;8482;54.396;18.590;2023-03-01T22:19:17;5.00;99.90
16728;DHT22;8482;54.396;18.590;2023-03-01T22:21:46;4.90;99.90
16728;DHT22;8482;54.396;18.590;2023-03-01T22:24:14;4.90;99.90
16728;DHT22;8482;54.396;18.590;2023-03-01T22:26:43;4.80;99.90
16728;DHT22;8482;54.396;18.590;2023-03-01T22:29:19;4.80;99.90
16728;DHT22;8482;54.396;18.590;2023-03-01T22:31:48;4.80;99.90
16728;DHT22;8482;54.396;18.590;2023-03-01T22:34:15;4.80;99.90
16728;DHT22;8482;54.396;18.590;2023-03-01T22:36:41;4.70;99.90
16728;DHT22;8482;54.396;18.590;2023-03-01T22:39:09;4.70;99.90
16728;DHT22;8482;54.396;18.590;2023-03-01T22:41:38;4.70;99.90
16728;DHT22;8482;54.396;18.590;2023-03-01T22:44:08;4.70;99.90
16728;DHT22;8482;54.396;18.590;2023-03-01T22:46:35;4.70;99.90
16728;DHT22;8482;54.396;18.590;2023-03-01T22:49:01;4.70;99.90
16728;DHT22;8482;54.396;18.590;2023-03-01T22:51:32;4.60;99.90
16728;DHT22;8482;54.396;18.590;2023-03-01T22:54:00;4.60;99.90
16728;DHT22;8482;54.396;18.590;2023-03-01T22:56:29;4.60;99.90
16728;DHT22;8482;54.396;18.590;2023-03-01T22:58:59;4.60;99.90
16728;DHT22;8482;54.396;18.590;2023-03-01T23:01:27;4.60;99.90
16728;DHT22;8482;54.396;18.590;2023-03-01T23:03:54;4.50;99.90
16728;DHT22;8482;54.396;18.590;2023-03-01T23:06:21;4.50;99.90
16728;DHT22;8482;54.396;18.590;2023-03-01T23:08:56;4.50;99.90
16728;DHT22;8482;54.396;18.590;2023-03-01T23:11:24;4.50;99.90
16728;DHT22;8482;54.396;18.590;2023-03-01T23:13:53;4.50;99.90
16728;DHT22;8482;54.396;18.590;2023-03-01T23:16:19;4.50;99.90
16728;DHT22;8482;54.396;18.590;2023-03-01T23:18:52;4.50;99.90